Time;durP1;ratioP1;P1;durP2;ratioP2;P2;SDS_P1;SDS_P2;PMS_P1;PMS_P2;Temp;Humidity;BMP_temperature;BMP_pressure;BME280_temperature;BME280_humidity;BME280_pressure;Samples;Min_cycle;Max_cycle;Signal;HPM_P1;HPM_P2
2022/04/27 00:01:51;;;;;;;83.72;44.13;;;;;;;3.69;73.76;100622.91;2092538;84;27826;-65
2022/04/27 00:04:53;;;;;;;68.37;40.58;;;;;;;3.68;73.75;100621.15;2092075;84;28672;-64
2022/04/27 00:07:55;;;;;;;79.97;45.55;;;;;;;3.65;73.83;100620.72;2091671;84;31970;-64
2022/04/27 00:10:58;;;;;;;78.12;45.48;;;;;;;3.64;73.92;100627.81;2091713;84;34050;-67
2022/04/27 00:14:00;;;;;;;80.25;45.45;;;;;;;3.62;73.99;100627.42;2092034;84;29649;-63
2022/04/27 00:17:03;;;;;;;76.25;47.40;;;;;;;3.59;73.94;100627.47;2092234;84;27688;-61
2022/04/27 00:20:07;;;;;;;78.90;46.23;;;;;;;3.58;74.21;100632.34;2092132;85;28482;-61
2022/04/27 00:23:09;;;;;;;82.72;47.40;;;;;;;3.56;74.21;100632.80;2092201;85;31022;-61
2022/04/27 00:26:11;;;;;;;85.47;48.52;;;;;;;3.53;74.15;100639.03;2092317;84;33402;-60
2022/04/27 00:29:13;;;;;;;79.67;45.52;;;;;;;3.51;74.14;100640.83;2091855;84;30954;-60
2022/04/27 00:32:15;;;;;;;81.78;46.58;;;;;;;3.49;74.03;100636.00;2091742;85;27725;-61
2022/04/27 00:35:17;;;;;;;84.37;45.98;;;;;;;3.46;74.03;100634.72;2091566;84;28685;-63
2022/04/27 00:38:19;;;;;;;81.15;47.27;;;;;;;3.43;73.98;100634.75;2091683;84;31533;-61
2022/04/27 00:41:22;;;;;;;87.02;46.75;;;;;;;3.39;73.91;100635.72;2091811;85;34158;-63
2022/04/27 00:44:25;;;;;;;80.55;45.25;;;;;;;3.35;74.05;100640.16;2091822;84;30382;-60
2022/04/27 00:47:30;;;;;;;81.85;46.50;;;;;;;3.31;74.10;100645.09;2092052;84;27642;-63
2022/04/27 00:50:33;;;;;;;84.55;48.63;;;;;;;3.28;74.15;100646.46;2092259;83;28649;-60
2022/04/27 00:53:37;;;;;;;83.58;45.52;;;;;;;3.25;74.23;100643.84;2091863;85;31911;-61
2022/04/27 00:56:39;;;;;;;80.70;43.68;;;;;;;3.22;74.11;100648.75;2092247;84;33016;-61
2022/04/27 00:59:41;;;;;;;85.07;46.28;;;;;;;3.18;74.13;100646.56;2119343;83;30550;-61
2022/04/27 01:02:44;;;;;;;74.35;43.05;;;;;;;3.15;74.11;100643.95;2091958;84;27687;-61
2022/04/27 01:05:48;;;;;;;88.60;47.88;;;;;;;3.12;74.13;100644.45;2092517;84;29648;-60
2022/04/27 01:08:50;;;;;;;79.32;44.55;;;;;;;3.11;74.16;100645.34;2092240;84;31020;-60
2022/04/27 01:11:52;;;;;;;79.92;46.42;;;;;;;3.10;74.25;100648.45;2092238;85;32725;-60
2022/04/27 01:14:53;;;;;;;89.97;47.05;;;;;;;3.08;74.35;100646.70;2091886;85;30802;-60
2022/04/27 01:17:57;;;;;;;84.90;46.70;;;;;;;3.07;74.39;100647.17;2091958;84;27698;-60
2022/04/27 01:20:59;;;;;;;83.03;45.58;;;;;;;3.04;74.37;100649.84;2092287;85;29069;-59
2022/04/27 01:24:01;;;;;;;81.20;45.48;;;;;;;3.01;74.49;100648.56;2092268;85;32324;-65
2022/04/27 01:27:04;;;;;;;78.92;44.25;;;;;;;2.99;74.49;100658.28;2091927;84;33555;-60
2022/04/27 01:30:08;;;;;;;82.72;46.15;;;;;;;2.97;74.46;100657.00;2091824;85;30576;-59
2022/04/27 01:33:11;;;;;;;77.95;43.73;;;;;;;2.97;74.44;100655.67;2092282;84;27675;-67
2022/04/27 01:36:15;;;;;;;77.25;43.30;;;;;;;2.97;74.63;100662.75;2091989;84;29146;-61
2022/04/27 01:39:17;;;;;;;82.80;45.17;;;;;;;2.95;74.66;100663.21;2090911;84;31634;-61
2022/04/27 01:42:19;;;;;;;85.87;45.92;;;;;;;2.95;74.60;100671.15;2078709;85;34192;-60
2022/04/27 01:45:21;;;;;;;85.35;47.75;;;;;;;2.94;74.68;100666.75;2079137;85;29637;-64
2022/04/27 01:48:23;;;;;;;89.35;48.63;;;;;;;2.90;74.71;100669.86;2079173;85;27626;-62
2022/04/27 01:54:46;;;;;;;79.72;44.35;;;;;;;2.85;74.83;100669.92;2078953;85;30961;-63
2022/04/27 01:57:48;;;;;;;87.75;48.15;;;;;;;2.84;74.77;100674.78;2078659;85;33856;-60
2022/04/27 02:00:51;;;;;;;84.15;45.20;;;;;;;2.83;74.83;100674.81;2079458;85;29973;-61
2022/04/27 02:03:53;;;;;;;89.15;49.48;;;;;;;2.82;74.86;100677.89;2079087;85;28204;-63
2022/04/27 02:06:56;;;;;;;94.75;47.27;;;;;;;2.81;74.83;100677.48;2078703;85;29927;-61
2022/04/27 02:10:01;;;;;;;89.28;49.65;;;;;;;2.81;74.85;100680.14;2078793;85;32374;-59
2022/04/27 02:13:06;;;;;;;90.57;49.03;;;;;;;2.78;74.82;100674.87;2078792;85;34241;-61
2022/04/27 02:16:08;;;;;;;96.35;53.90;;;;;;;2.78;74.82;100676.63;2078433;85;30811;-59
2022/04/27 02:19:10;;;;;;;101.33;53.83;;;;;;;2.75;74.91;100669.61;2078903;85;27659;-60
2022/04/27 02:22:12;;;;;;;101.87;53.00;;;;;;;2.71;74.96;100664.81;2078470;85;28774;-60
2022/04/27 02:25:14;;;;;;;95.83;52.50;;;;;;;2.68;74.92;100666.59;2078898;85;31583;-59
2022/04/27 02:28:16;;;;;;;103.72;56.20;;;;;;;2.68;74.99;100671.88;2078645;85;32955;-60
2022/04/27 02:31:17;;;;;;;98.12;54.73;;;;;;;2.66;75.00;100667.05;2078571;85;30056;-60
2022/04/27 02:34:19;;;;;;;103.75;54.75;;;;;;;2.63;75.10;100668.44;2078774;85;27704;-60
2022/04/27 02:37:21;;;;;;;103.65;55.80;;;;;;;2.57;75.08;100668.92;2078626;85;29016;-59
2022/04/27 02:40:23;;;;;;;99.42;55.30;;;;;;;2.54;75.02;100675.55;2083197;84;31791;-59
2022/04/27 02:43:27;;;;;;;95.20;52.38;;;;;;;2.52;75.01;100669.41;2091834;84;33433;-64
2022/04/27 02:46:28;;;;;;;88.95;51.33;;;;;;;2.48;74.94;100675.64;2092067;83;29492;-59
2022/04/27 02:52:49;;;;;;;86.45;51.15;;;;;;;2.41;75.08;100673.94;2091974;84;29319;-60
2022/04/27 02:55:51;;;;;;;89.92;50.15;;;;;;;2.36;75.17;100672.66;2091987;85;32224;-60
2022/04/27 02:58:53;;;;;;;90.65;49.30;;;;;;;2.33;75.17;100673.12;2091998;84;33122;-60
2022/04/27 03:01:55;;;;;;;86.45;50.95;;;;;;;2.30;75.07;100673.17;2092078;84;29668;-59
2022/04/27 03:04:57;;;;;;;89.30;51.28;;;;;;;2.25;75.14;100674.52;2091902;85;27698;-61
2022/04/27 03:07:59;;;;;;;88.15;50.43;;;;;;;2.21;75.11;100673.67;2092087;85;28215;-60
2022/04/27 03:11:01;;;;;;;86.40;49.10;;;;;;;2.21;75.22;100689.99;2091920;85;30991;-60
2022/04/27 03:14:02;;;;;;;86.65;50.20;;;;;;;2.21;75.34;100684.70;2092164;84;33846;-60
2022/04/27 03:17:05;;;;;;;84.55;52.20;;;;;;;2.21;75.37;100692.17;2092466;85;30235;-59
2022/04/27 03:20:08;;;;;;;86.55;49.75;;;;;;;2.21;75.47;100696.60;2092254;85;27682;-63
2022/04/27 03:23:10;;;;;;;92.30;51.05;;;;;;;2.20;75.45;100702.78;2091919;84;28866;-65
2022/04/27 03:26:12;;;;;;;83.72;49.25;;;;;;;2.17;75.50;100700.16;2091832;85;30920;-63
2022/04/27 03:29:17;;;;;;;86.70;49.83;;;;;;;2.14;75.51;100699.75;2091505;84;34194;-62
2022/04/27 03:32:20;;;;;;;88.60;50.75;;;;;;;2.10;75.53;100698.88;2091973;85;29759;-62
2022/04/27 03:35:23;;;;;;;81.12;46.60;;;;;;;2.09;75.50;100698.89;2092223;84;27684;-61
2022/04/27 03:38:25;;;;;;;82.80;48.98;;;;;;;2.06;75.54;100701.13;2091859;85;29361;-62
2022/04/27 03:41:28;;;;;;;83.67;49.27;;;;;;;2.04;75.57;100700.27;2091762;84;32275;-67
2022/04/27 03:44:29;;;;;;;94.55;50.83;;;;;;;2.02;75.67;100702.03;2092097;85;33062;-63
2022/04/27 03:47:32;;;;;;;80.90;48.00;;;;;;;2.00;75.71;100703.81;2092106;85;29993;-61
2022/04/27 03:50:34;;;;;;;87.42;50.00;;;;;;;2.02;75.71;100703.78;2092241;85;27672;-61
2022/04/27 03:53:35;;;;;;;85.87;47.83;;;;;;;2.05;75.80;100707.73;2092212;84;28581;-60
2022/04/27 03:56:38;;;;;;;89.40;48.80;;;;;;;2.07;75.80;100707.28;2091984;84;31631;-61
2022/04/27 03:59:40;;;;;;;90.77;51.25;;;;;;;2.12;75.87;100714.73;2091820;84;33455;-60
2022/04/27 04:02:42;;;;;;;91.08;49.88;;;;;;;2.16;75.90;100715.58;2091866;84;30240;-62
2022/04/27 04:05:44;;;;;;;83.87;51.35;;;;;;;2.20;75.89;100724.78;2091930;85;27759;-61
2022/04/27 04:08:46;;;;;;;92.97;54.93;;;;;;;2.26;75.96;100726.06;2092189;84;29137;-61
2022/04/27 04:11:47;;;;;;;99.75;53.17;;;;;;;2.29;75.99;100733.08;2092059;85;31070;-60
2022/04/27 04:14:50;;;;;;;84.85;51.08;;;;;;;2.36;76.10;100733.48;2092173;84;32870;-64
2022/04/27 04:17:53;;;;;;;94.52;50.28;;;;;;;2.43;76.15;100736.48;2092095;85;30288;-61
2022/04/27 04:20:55;;;;;;;87.02;50.03;;;;;;;2.51;76.16;100744.34;2092672;84;27698;-63
2022/04/27 04:23:57;;;;;;;84.67;50.83;;;;;;;2.61;76.22;100739.84;2091935;84;29895;-61
2022/04/27 04:30:21;;;;;;;95.90;50.65;;;;;;;2.80;76.36;100739.23;2092091;84;33621;-61
2022/04/27 04:33:23;;;;;;;83.07;50.38;;;;;;;2.94;76.41;100747.00;2092407;84;30023;-61
2022/04/27 04:36:26;;;;;;;90.50;50.67;;;;;;;3.06;76.53;100749.11;2092548;85;27644;-63
2022/04/27 04:39:27;;;;;;;88.85;49.40;;;;;;;3.19;76.59;100749.39;2092365;84;28665;-63
2022/04/27 04:42:29;;;;;;;94.62;52.48;;;;;;;3.32;76.62;100752.31;2081317;85;30953;-61
2022/04/27 04:45:31;;;;;;;94.83;53.55;;;;;;;3.50;76.86;100753.83;2078811;85;33754;-60
2022/04/27 04:48:33;;;;;;;83.17;50.88;;;;;;;3.95;77.66;100753.69;2078887;85;30830;-60
2022/04/27 04:51:35;;;;;;;87.82;51.77;;;;;;;4.67;78.04;100748.09;2078835;85;27728;-60
2022/04/27 04:54:38;;;;;;;72.78;44.85;;;;;;;5.44;77.87;100754.55;2078791;85;29543;-61
2022/04/27 04:57:40;;;;;;;68.85;40.52;;;;;;;6.23;77.64;100756.80;2079146;85;32199;-60
2022/04/27 05:00:42;;;;;;;55.92;36.42;;;;;;;7.03;76.92;100756.98;2079081;85;33407;-61
2022/04/27 05:03:44;;;;;;;49.53;31.90;;;;;;;7.80;76.52;100753.87;2079050;85;30856;-60
2022/04/27 05:06:49;;;;;;;53.90;30.35;;;;;;;8.57;75.90;100757.22;2079061;85;27693;-61
2022/04/27 05:09:51;;;;;;;;;;;;;;;9.33;75.19;100759.90;2081394;85;29319;-61
2022/04/27 05:12:53;;;;;;;52.10;32.10;;;;;;;10.06;74.44;100762.47;2078881;85;31066;-62
2022/04/27 05:15:56;;;;;;;54.77;31.30;;;;;;;10.82;73.91;100757.14;2078837;85;33501;-64
2022/04/27 05:18:59;;;;;;;41.73;28.73;;;;;;;11.58;73.11;100755.11;2079215;85;29880;-62
2022/04/27 05:22:01;;;;;;;44.93;28.67;;;;;;;12.34;72.49;100759.09;2079147;85;27693;-61
2022/04/27 05:25:04;;;;;;;44.48;28.83;;;;;;;13.02;71.68;100756.98;2078866;85;29378;-63
2022/04/27 05:28:07;;;;;;;36.95;27.05;;;;;;;13.58;70.47;100762.14;2078842;85;31203;-62
2022/04/27 05:34:30;;;;;;;44.15;28.57;;;;;;;14.30;68.64;100768.95;2078753;85;30924;-61
2022/04/27 05:37:32;;;;;;;40.78;27.00;;;;;;;14.39;67.49;100766.59;2079182;85;27640;-62
2022/04/27 05:40:34;;;;;;;39.48;26.40;;;;;;;14.34;66.67;100771.37;2079881;85;29762;-60
2022/04/27 05:43:36;;;;;;;40.92;27.25;;;;;;;14.22;66.36;100776.98;2092236;85;31698;-60
2022/04/27 05:46:40;;;;;;;39.53;26.70;;;;;;;14.22;65.60;100772.94;2091813;84;34339;-61
2022/04/27 05:49:42;;;;;;;39.20;27.98;;;;;;;14.22;65.60;100772.94;2091582;84;30903;-63
2022/04/27 05:52:52;;;;;;;50.23;30.08;;;;;;;14.34;65.47;100777.22;2092252;85;27513;-61
2022/04/27 05:55:54;;;;;;;46.05;28.95;;;;;;;14.53;65.29;100775.20;2092149;84;28644;-63
2022/04/27 05:58:59;;;;;;;41.65;28.62;;;;;;;14.70;65.06;100752.67;2091897;84;31881;-60
2022/04/27 06:02:01;;;;;;;41.23;28.10;;;;;;;15.12;64.45;100772.21;2092188;84;33777;-64
2022/04/27 06:05:05;;;;;;;38.78;26.48;;;;;;;15.47;64.12;100789.41;2091757;84;30936;-61
2022/04/27 06:08:09;;;;;;;38.33;26.55;;;;;;;15.71;63.24;100792.40;2092429;84;27688;-61
2022/04/27 06:11:11;;;;;;;36.93;26.57;;;;;;;16.00;62.76;100795.09;2092269;84;28814;-61
2022/04/27 06:14:13;;;;;;;38.08;26.68;;;;;;;16.38;62.30;100798.48;2092188;84;31406;-61
2022/04/27 06:17:15;;;;;;;35.98;26.33;;;;;;;16.81;61.87;100796.56;2091843;85;33498;-62
2022/04/27 06:20:18;;;;;;;35.85;25.27;;;;;;;17.25;61.22;100800.80;2092134;84;30460;-60
2022/04/27 06:23:20;;;;;;;34.83;24.10;;;;;;;17.74;60.75;100801.85;2091995;84;27658;-61
2022/04/27 06:26:22;;;;;;;32.50;23.15;;;;;;;18.31;60.06;100809.55;2091891;85;29417;-61
2022/04/27 06:29:24;;;;;;;31.60;23.30;;;;;;;18.83;58.92;100807.49;2092069;84;31178;-61
2022/04/27 06:32:32;;;;;;;31.25;22.37;;;;;;;19.33;58.06;100807.78;2091814;85;33673;-64
2022/04/27 06:35:34;;;;;;;31.40;20.62;;;;;;;19.86;57.57;100811.28;2091885;84;29775;-62
2022/04/27 06:38:35;;;;;;;29.30;19.48;;;;;;;20.45;56.97;100811.47;2092190;85;27628;-62
2022/04/27 06:41:38;;;;;;;28.27;19.55;;;;;;;21.00;56.29;100811.91;2088211;84;28790;-61
2022/04/27 06:44:40;;;;;;;24.52;18.70;;;;;;;21.52;55.39;100811.08;2078620;85;31996;-61
2022/04/27 06:47:42;;;;;;;24.98;18.82;;;;;;;22.00;54.27;100810.48;2078955;85;34234;-61
2022/04/27 06:50:45;;;;;;;19.02;15.10;;;;;;;22.39;53.83;100814.30;2079214;85;30856;-61
2022/04/27 06:53:47;;;;;;;23.38;15.55;;;;;;;22.80;52.55;100821.06;2079218;85;27665;-62
2022/04/27 06:56:50;;;;;;;18.92;15.75;;;;;;;23.08;51.62;100817.96;2078782;85;29572;-62
2022/04/27 06:59:52;;;;;;;22.17;16.17;;;;;;;23.21;51.18;100817.70;2078539;85;31463;-63
2022/04/27 07:02:54;;;;;;;19.25;15.50;;;;;;;23.19;50.89;100817.80;2078704;85;34369;-62
2022/04/27 07:05:56;;;;;;;15.50;12.40;;;;;;;23.60;50.18;100822.21;2079271;85;30548;-61
2022/04/27 07:08:58;;;;;;;17.12;12.75;;;;;;;24.03;48.62;100815.81;2079070;85;27525;-63
2022/04/27 07:12:00;;;;;;;17.05;12.50;;;;;;;24.36;47.00;100818.42;2078618;85;29686;-61
2022/04/27 07:15:03;;;;;;;13.60;10.08;;;;;;;24.81;47.07;100823.54;2078854;85;31422;-61
2022/04/27 07:18:06;;;;;;;14.87;11.10;;;;;;;25.20;45.92;100819.58;2078635;85;34195;-61
2022/04/27 07:21:08;;;;;;;10.35;6.97;;;;;;;25.39;45.48;100823.15;2078938;85;30459;-61
2022/04/27 07:24:10;;;;;;;8.00;5.10;;;;;;;25.43;43.15;100823.22;2079165;85;27651;-63
2022/04/27 07:27:12;;;;;;;9.15;6.65;;;;;;;25.02;41.17;100823.73;2079102;85;29861;-62
2022/04/27 07:30:14;;;;;;;9.15;6.30;;;;;;;24.47;39.50;100835.67;2078920;85;31893;-62
2022/04/27 07:33:16;;;;;;;8.43;6.58;;;;;;;24.07;40.65;100839.98;2078912;85;33024;-62
2022/04/27 07:36:19;;;;;;;8.05;6.90;;;;;;;23.63;39.96;100852.86;2078767;85;30833;-61
2022/04/27 07:39:21;;;;;;;9.70;7.10;;;;;;;23.51;39.77;100845.84;2079138;85;28163;-61
2022/04/27 07:42:23;;;;;;;8.98;7.10;;;;;;;23.55;38.78;100846.41;2076344;84;29916;-61
2022/04/27 07:45:27;;;;;;;10.15;7.62;;;;;;;23.41;38.97;100846.38;2073532;85;31955;-61
2022/04/27 07:48:32;;;;;;;12.05;7.72;;;;;;;23.71;40.06;100842.54;2074072;85;33170;-62
2022/04/27 07:51:33;;;;;;;9.58;7.47;;;;;;;24.04;39.03;100850.38;2018553;88;29681;-62
2022/04/27 07:54:36;;;;;;;6.85;5.83;;;;;;;23.97;39.29;100850.97;2038509;87;27720;-73
2022/04/27 07:57:39;;;;;;;8.53;6.55;;;;;;;24.06;39.21;100853.31;2073908;85;28670;-64
2022/04/27 08:00:41;;;;;;;6.90;5.67;;;;;;;24.34;37.98;100856.56;2038775;87;31360;-61
2022/04/27 08:03:43;;;;;;;8.63;5.95;;;;;;;24.34;37.93;100852.45;2073797;85;34005;-66
2022/04/27 08:06:45;;;;;;;8.15;5.58;;;;;;;24.36;37.68;100852.65;2018718;88;30812;-65
2022/04/27 08:09:50;;;;;;;9.35;5.87;;;;;;;24.51;35.16;100854.37;2071646;85;27687;-64
2022/04/27 08:12:55;;;;;;;8.68;5.10;;;;;;;24.19;36.64;100865.78;2018906;88;28820;-67
2022/04/27 08:15:58;;;;;;;5.92;5.08;;;;;;;24.06;36.19;100865.63;2071532;85;31731;-61
2022/04/27 08:19:00;;;;;;;6.28;4.45;;;;;;;23.99;36.06;100871.86;2018719;88;33779;-64
2022/04/27 08:22:06;;;;;;;7.33;4.62;;;;;;;24.02;35.52;100872.94;2071230;86;30811;-63
2022/04/27 08:25:12;;;;;;;5.47;4.95;;;;;;;24.17;35.31;100871.91;2018947;87;27739;-63
2022/04/27 08:28:16;;;;;;;5.97;3.95;;;;;;;24.21;35.27;100871.97;2071249;86;29588;-63
2022/04/27 08:31:20;;;;;;;4.65;3.90;;;;;;;24.15;34.13;100872.08;2018862;88;31133;-65
2022/04/27 08:34:25;;;;;;;5.47;4.50;;;;;;;24.16;34.11;100866.11;2071804;85;33623;-61
2022/04/27 08:37:27;;;;;;;6.00;4.83;;;;;;;24.08;34.17;100869.08;2038384;87;29659;-60
2022/04/27 08:40:31;;;;;;;7.00;5.20;;;;;;;24.19;34.90;100871.25;2074016;85;27724;-60
2022/04/27 08:43:34;;;;;;;7.42;5.37;;;;;;;24.17;34.45;100863.70;2016086;87;28699;-60
2022/04/27 08:46:37;;;;;;;6.17;5.55;;;;;;;24.06;34.48;100869.73;2082052;85;31945;-62
2022/04/27 08:49:48;;;;;;;3.90;3.47;;;;;;;23.96;34.94;100864.79;2082683;85;32455;-65
2022/04/27 08:52:53;;;;;;;7.85;4.75;;;;;;;23.74;33.10;100871.49;2081327;85;27695;-61
2022/04/27 08:55:56;;;;;;;6.87;3.60;;;;;;;23.44;33.03;100874.28;2082812;85;27695;-63
2022/04/27 08:59:00;;;;;;;5.72;3.35;;;;;;;23.28;33.32;100873.50;2082042;85;29363;-60
2022/04/27 09:02:28;;;;;;;5.95;4.40;;;;;;;23.19;33.78;100872.47;2082404;85;31010;-60
2022/04/27 09:05:32;;;;;;;5.90;4.78;;;;;;;23.09;33.78;100882.55;2082336;85;33064;-61
2022/04/27 09:08:40;;;;;;;7.42;4.20;;;;;;;22.76;33.57;100871.88;2082126;85;30408;-61
2022/04/27 09:11:43;;;;;;;7.30;4.90;;;;;;;22.75;33.75;100880.22;2049793;86;27787;-63
2022/04/27 09:14:46;;;;;;;8.23;5.60;;;;;;;22.97;33.44;100875.51;1989690;88;29441;-63
2022/04/27 09:21:17;;;;;;;6.03;5.12;;;;;;;23.44;34.07;100874.28;2082286;85;33646;-61
2022/04/27 09:24:21;;;;;;;6.97;5.75;;;;;;;23.35;32.16;100869.67;2059442;85;29633;-61
2022/04/27 09:27:25;;;;;;;6.25;4.80;;;;;;;22.73;32.95;100872.19;2082151;85;27610;-63
2022/04/27 09:30:28;;;;;;;6.35;5.47;;;;;;;22.26;33.05;100876.84;2082488;85;28633;-61
2022/04/27 09:33:36;;;;;;;7.08;4.80;;;;;;;21.75;33.49;100881.37;2082052;85;31783;-67
2022/04/27 09:36:38;;;;;;;6.83;5.65;;;;;;;21.14;33.39;100880.18;2082346;85;33012;-70
2022/04/27 09:39:40;;;;;;;7.25;4.72;;;;;;;20.45;33.58;100888.16;2082050;85;30824;-69
2022/04/27 09:42:46;;;;;;;6.87;5.45;;;;;;;19.83;33.98;100887.17;2078785;84;27733;-60
2022/04/27 09:45:48;;;;;;;9.33;5.17;;;;;;;19.41;34.26;100891.79;2018447;88;28803;-70
2022/04/27 09:49:14;;;;;;;6.97;4.70;;;;;;;19.08;34.99;100895.23;2052986;86;31856;-65
2022/04/27 09:52:18;;;;;;;8.23;5.60;;;;;;;18.76;35.30;100898.03;2018309;88;35074;-62
2022/04/27 09:55:21;;;;;;;6.22;5.40;;;;;;;18.48;35.62;100896.48;2071637;85;29974;-61
2022/04/27 09:58:26;;;;;;;7.42;5.40;;;;;;;18.35;36.02;100894.69;2018854;88;27659;-62
2022/04/27 10:01:27;;;;;;;9.60;6.33;;;;;;;18.19;36.52;100888.14;2053420;86;28651;-61
2022/04/27 10:04:30;;;;;;;7.90;5.97;;;;;;;18.14;36.57;100892.17;2018379;88;32286;-67
2022/04/27 10:07:36;;;;;;;10.45;6.67;;;;;;;18.06;36.98;100895.44;2071113;85;34219;-66
2022/04/27 10:10:39;;;;;;;9.25;6.20;;;;;;;18.05;37.39;100895.91;2018372;87;30444;-75
2022/04/27 10:13:41;;;;;;;8.80;6.33;;;;;;;17.99;36.79;100898.19;2071645;85;28003;-61
2022/04/27 10:16:44;;;;;;;12.93;6.10;;;;;;;17.88;37.20;100894.85;2018397;87;29943;-62
2022/04/27 10:19:49;;;;;;;9.10;6.12;;;;;;;17.87;37.51;100895.86;2071553;85;31416;-60
2022/04/27 10:22:51;;;;;;;8.75;5.92;;;;;;;17.99;38.34;100896.84;2018676;88;32939;-64
2022/04/27 10:26:20;;;;;;;8.80;6.35;;;;;;;18.06;37.48;100899.00;2098258;84;30769;-67
2022/04/27 10:29:22;;;;;;;8.80;6.25;;;;;;;18.19;38.17;100896.27;2038513;87;27629;-64
2022/04/27 10:32:47;;;;;;;9.93;6.70;;;;;;;18.36;37.96;100895.06;2073781;85;29481;-65
2022/04/27 10:35:50;;;;;;;9.30;5.62;;;;;;;18.52;38.08;100898.00;2018606;88;31247;-65
2022/04/27 10:39:16;;;;;;;7.05;5.50;;;;;;;18.66;37.48;100898.32;2071395;85;33031;-63
2022/04/27 10:42:31;;;;;;;7.47;5.60;;;;;;;18.73;36.45;100909.58;2018443;87;30405;-61
2022/04/27 10:45:41;;;;;;;7.35;4.92;;;;;;;18.69;36.35;100903.52;2082339;84;27640;-61
2022/04/27 10:48:50;;;;;;;7.05;5.25;;;;;;;18.76;36.84;100903.45;2082324;85;28664;-67
2022/04/27 10:52:04;;;;;;;10.58;5.42;;;;;;;18.85;36.18;100904.62;2082281;85;31709;-62
2022/04/27 10:55:07;;;;;;;7.28;5.80;;;;;;;19.00;36.21;100894.46;2080762;85;36759;-63
2022/04/27 10:58:19;;;;;;;8.58;5.65;;;;;;;19.10;36.35;100893.27;2082195;85;30322;-65
2022/04/27 11:01:30;;;;;;;8.05;5.35;;;;;;;19.23;36.54;100900.00;2082415;85;27700;-61
2022/04/27 11:04:34;;;;;;;5.50;4.50;;;;;;;19.21;35.85;100905.53;2082354;85;28645;-61
2022/04/27 11:08:01;;;;;;;7.20;4.30;;;;;;;19.15;34.94;100900.59;2082358;85;31064;-64
2022/04/27 11:11:08;;;;;;;5.55;3.80;;;;;;;18.92;35.47;100895.52;2082093;85;33784;-70
2022/04/27 11:14:12;;;;;;;8.58;4.40;;;;;;;18.77;35.40;100911.98;2082419;85;29666;-64
2022/04/27 11:17:29;;;;;;;6.40;5.20;;;;;;;18.62;35.70;100911.73;2082458;85;37178;-61
2022/04/27 11:20:40;;;;;;;9.65;5.65;;;;;;;18.42;35.64;100911.84;2082531;85;29948;-60
2022/04/27 11:23:42;;;;;;;14.18;6.30;;;;;;;18.17;36.54;100918.56;2082406;85;30802;-61
2022/04/27 11:26:46;;;;;;;7.17;5.60;;;;;;;18.09;36.68;100917.38;2082471;85;34088;-63
2022/04/27 11:29:50;;;;;;;11.93;7.25;;;;;;;17.96;37.34;100915.52;2050094;86;29889;-66
2022/04/27 11:32:53;;;;;;;7.30;5.93;;;;;;;17.87;37.59;100917.04;2082868;85;27692;-62
2022/04/27 11:35:55;;;;;;;7.37;5.55;;;;;;;17.79;37.80;100917.20;2082171;85;28711;-64
2022/04/27 11:39:06;;;;;;;7.75;5.33;;;;;;;17.80;38.00;100924.36;2082134;85;32301;-61
2022/04/27 11:42:29;;;;;;;8.50;6.20;;;;;;;17.80;38.15;100918.94;2082078;85;34171;-61
2022/04/27 11:45:37;;;;;;;6.58;5.05;;;;;;;17.82;38.42;100924.62;2058131;85;27697;-63
2022/04/27 11:48:39;;;;;;;6.95;5.45;;;;;;;17.75;37.48;100918.77;2059216;85;27707;-61
2022/04/27 11:51:48;;;;;;;7.15;4.72;;;;;;;17.74;37.56;100917.53;2082360;85;28635;-62
2022/04/27 11:54:51;;;;;;;6.17;4.75;;;;;;;17.78;37.28;100920.41;2082620;85;31419;-61
2022/04/27 11:57:53;;;;;;;5.78;4.87;;;;;;;17.81;37.18;100915.25;2082247;85;33861;-65
2022/04/27 12:00:58;;;;;;;5.95;4.58;;;;;;;17.82;36.49;100919.70;2082127;85;30506;-64
2022/04/27 12:04:00;;;;;;;6.72;4.47;;;;;;;17.85;37.35;100910.00;2081743;85;27724;-70
2022/04/27 12:07:13;;;;;;;9.60;5.67;;;;;;;17.95;37.01;100910.22;2081985;85;29515;-70
2022/04/27 12:10:16;;;;;;;10.35;6.62;;;;;;;18.04;36.72;100915.86;2060881;85;32235;-66
2022/04/27 12:13:22;;;;;;;15.00;8.20;;;;;;;18.14;37.18;100912.50;2082229;85;33649;-65
2022/04/27 12:16:29;;;;;;;5.70;4.85;;;;;;;18.22;36.84;100911.45;2082156;85;30857;-65
2022/04/27 12:19:33;;;;;;;8.00;4.28;;;;;;;18.32;36.78;100912.53;2082557;85;27679;-62
2022/04/27 12:22:35;;;;;;;7.40;4.77;;;;;;;18.40;36.65;100914.69;2082637;85;28644;-62
2022/04/27 12:25:56;;;;;;;8.93;4.80;;;;;;;18.37;36.52;100909.48;2082401;85;32213;-70
2022/04/27 12:28:55;;;;;;;7.50;4.95;;;;;;;18.36;35.42;100907.27;2081488;85;33559;-67
2022/04/27 12:31:58;;;;;;;7.65;4.95;;;;;;;18.25;35.88;100903.09;2081902;85;29656;-61
2022/04/27 12:38:32;;;;;;;7.03;5.35;;;;;;;18.20;36.10;100907.50;2082076;85;29903;-59
2022/04/27 12:41:43;;;;;;;6.10;4.93;;;;;;;18.16;35.48;100897.00;2082612;85;31082;-61
2022/04/27 12:44:59;;;;;;;7.25;5.17;;;;;;;18.16;35.48;100897.00;2081964;84;32946;-65
2022/04/27 12:48:07;;;;;;;6.33;5.00;;;;;;;18.19;35.55;100900.34;2082039;85;28220;-61
2022/04/27 12:51:09;;;;;;;7.08;4.40;;;;;;;18.34;35.80;100893.42;2023665;86;27748;-59
2022/04/27 12:54:12;;;;;;;5.42;4.22;;;;;;;18.42;35.11;100886.96;2015525;88;29105;-62
2022/04/27 12:57:15;;;;;;;6.87;4.80;;;;;;;18.56;35.90;100887.28;2082084;85;32128;-60
2022/04/27 13:00:21;;;;;;;7.50;4.42;;;;;;;18.58;35.06;100896.17;2082495;85;32887;-61
2022/04/27 13:03:23;;;;;;;7.42;4.03;;;;;;;18.49;34.70;100893.65;2082933;85;29758;-66
2022/04/27 13:06:30;;;;;;;7.97;5.15;;;;;;;18.41;35.17;100897.44;2082271;85;27623;-61
2022/04/27 13:12:51;;;;;;;8.48;3.87;;;;;;;18.16;35.26;100899.20;2082144;85;32198;-62
2022/04/27 13:15:53;;;;;;;4.75;3.40;;;;;;;18.01;35.03;100897.13;2082359;85;33346;-64
2022/04/27 13:18:57;;;;;;;6.83;3.98;;;;;;;17.82;34.66;100897.52;2082100;85;30303;-69
2022/04/27 13:21:59;;;;;;;4.87;3.35;;;;;;;17.68;34.51;100899.86;2082538;85;27573;-67
2022/04/27 13:25:02;;;;;;;4.35;3.60;;;;;;;17.59;34.80;100900.02;2082176;85;28853;-62
2022/04/27 13:28:06;;;;;;;4.65;3.60;;;;;;;17.56;35.43;100904.29;2082220;85;31723;-66
2022/04/27 13:31:09;;;;;;;7.78;4.53;;;;;;;17.58;35.44;100902.81;2082540;85;33737;-69
2022/04/27 13:34:11;;;;;;;6.55;4.00;;;;;;;17.58;35.74;100903.70;2082408;85;29646;-70
2022/04/27 13:37:14;;;;;;;7.92;4.33;;;;;;;17.65;36.10;100908.67;2082375;85;27646;-69
2022/04/27 13:40:16;;;;;;;9.45;4.78;;;;;;;17.71;36.10;100902.33;2082483;85;29539;-63
2022/04/27 13:43:18;;;;;;;7.22;4.12;;;;;;;17.74;36.10;100892.63;2082342;85;31140;-65
2022/04/27 13:46:24;;;;;;;5.78;4.25;;;;;;;17.85;36.18;100896.45;2082163;85;33628;-65
2022/04/27 13:49:27;;;;;;;7.60;4.20;;;;;;;17.89;35.99;100893.88;2082150;85;29684;-66
2022/04/27 13:52:30;;;;;;;4.92;3.98;;;;;;;17.95;36.11;100893.95;2082900;85;27704;-63
2022/04/27 13:55:35;;;;;;;5.35;4.53;;;;;;;18.00;36.56;100895.86;2082571;85;29510;-66
2022/04/27 13:58:36;;;;;;;5.45;4.12;;;;;;;18.06;36.00;100893.58;2082511;85;31852;-63
2022/04/27 14:01:39;;;;;;;7.95;4.25;;;;;;;18.08;35.81;100889.41;2082413;85;34159;-62
2022/04/27 14:04:42;;;;;;;5.37;4.85;;;;;;;18.13;35.78;100891.28;2082127;85;30625;-61
2022/04/27 14:07:44;;;;;;;5.95;4.33;;;;;;;18.17;35.05;100892.80;2082641;85;27655;-63
2022/04/27 14:10:47;;;;;;;6.75;4.37;;;;;;;18.21;35.58;100895.68;2082445;85;28644;-61
2022/04/27 14:13:51;;;;;;;7.85;4.30;;;;;;;18.28;35.15;100891.18;2023327;86;31879;-65
2022/04/27 14:20:14;;;;;;;6.33;4.47;;;;;;;18.35;34.69;100893.80;2082227;85;30458;-60
2022/04/27 14:23:17;;;;;;;6.75;4.90;;;;;;;18.33;34.60;100893.92;2049894;86;27682;-61
2022/04/27 14:26:19;;;;;;;6.90;4.83;;;;;;;18.32;35.22;100888.59;2015051;88;29498;-65
2022/04/27 14:29:21;;;;;;;7.00;5.35;;;;;;;18.29;34.96;100885.63;2082405;85;31415;-71
2022/04/27 14:32:23;;;;;;;9.73;5.42;;;;;;;18.26;35.05;100890.42;2082004;85;34179;-67
2022/04/27 14:35:26;;;;;;;8.98;5.05;;;;;;;18.22;34.92;100893.82;2082141;85;30469;-61